Saturday, February 28, 2015
15:53 UTC
  |  Log In   |  Register Free
Airport Search:

Powell Municipal Airport
(KPOY)

Powell Municipal Airport Diagram
No Airport Diagram Available

FAA data valid effective January 08, 2015 - March 05, 2015 (unless otherwise noted).

 
 
 
 
 
 
 
 
 
 
 
 
 
 

Current Aviation Weather for Powell Municipal Airport (KPOY)

The most recent METAR observation for KPOY was updated at: 1510
METAR Summary (Translated METAR)
KPOY
281455Z AUTO 31012KT 10SM SCT045 OVC060 M13/M15 A2998 RMK AO2
KU68
281455Z AUTO 24003KT 10SM OVC070 M08/M13 A3006 RMK AO2
(15 nm NE from KPOY)
KCOD
281455Z 01007KT 10SM OVC048 M12/M12 A3000 RMK AO1 52014
(23.1 nm SW from KPOY)
TAF Summary (Translated TAF)
KCOD
281122Z 2812/0112 02007KT P6SM -SN SCT018 BKN030 FM281900 02007KT P6SM VCSH SCT020 BKN030 FM010200 VRB05KT P6SM SCT030 BKN040 FM010800 VRB04KT P6SM SCT040 AMD LTD TO CLD VIS AND WIND
  Airport Weather Conditions for KPOY

 Current Weather at POY
9° F
Overcast
Northwest winds at 13.8 mph
POY NOAA Radar

Pressure: 29.98 in
Humidity: 85%
Wind: Northwest at 13.8 MPH (12 KT)
Dew Point: 5.0°F
Visibility: 10.00 mi


Airport Weather Forecast for KPOY

Translated METAR and TAF for KCOD
Translated METAR for KCOD (1553 UTC 28 February 2015)
found at http://aviationweather.gov/adds/metars/
 
METAR text: KCOD 281535Z 04007KT 7SM OVC050 M11/M12 A3001 RMK AO1
Conditions at: KCOD (CODY , WY, US) observed 1535 UTC 28 February 2015
Temperature: -11.0°C (12°F)
Dewpoint: -12.0°C (10°F) [RH = 92%]
Pressure (altimeter): 30.01 inches Hg (1016.3 mb)
Winds: from the NE (40 degrees) at 8 MPH (7 knots; 3.6 m/s)
Visibility: 7 miles (11 km)
Ceiling: 5000 feet AGL
Clouds: overcast cloud deck at 5000 feet AGL
Weather: no significant weather observed at this time
Translated TAF for KCOD
Forecast for: KCOD (CODY , WY, US)
TAF Text: KCOD 281122Z 2812/0112 02007KT P6SM -SN SCT018 BKN030
Forecast period: 1200 to 1900 UTC 28 February 2015
Forecast type: FROM: standard forecast or significant change
Winds: from the NNE (20 degrees) at 8 MPH (7 knots; 3.6 m/s)
Visibility: 6 or more miles (10+ km)
Ceiling: 3000 feet AGL
Clouds: scattered clouds at 1800 feet AGL
broken clouds at 3000 feet AGL
Weather: -SN  (light snow)
TAF Text: FM281900 02007KT P6SM VCSH SCT020 BKN030
Forecast period: 1900 UTC 28 February 2015 to 0200 UTC 01 March 2015
Forecast type: FROM: standard forecast or significant change
Winds: from the NNE (20 degrees) at 8 MPH (7 knots; 3.6 m/s)
Visibility: 6 or more miles (10+ km)
Ceiling: 3000 feet AGL
Clouds: scattered clouds at 2000 feet AGL
broken clouds at 3000 feet AGL
Weather: VCSH  (showers in vicinity)
TAF Text: FM010200 VRB05KT P6SM SCT030 BKN040
Forecast period: 0200 to 0800 UTC 01 March 2015
Forecast type: FROM: standard forecast or significant change
Winds: variable direction winds at 6 MPH (5 knots; 2.6 m/s)
Visibility: 6 or more miles (10+ km)
Ceiling: 4000 feet AGL
Clouds: scattered clouds at 3000 feet AGL
broken clouds at 4000 feet AGL
Weather: no significant weather forecast for this period
TAF Text: FM010800 VRB04KT P6SM SCT040 AMD LTD TO CLD VIS AND WIND
Forecast period: 0800 to 1200 UTC 01 March 2015
Forecast type: FROM: standard forecast or significant change
Winds: variable direction winds at 5 MPH (4 knots; 2.1 m/s)
Visibility: 6 or more miles (10+ km)
Clouds: scattered clouds at 4000 feet AGL
Weather: no significant weather forecast for this period

Find All Airport Services Find A Hotel Find A Rental Car Find A Golf Course Find A Restaurant $100 Hamburger



FBO's on the Field
FBO Company Facility Photos Services Transportation Aviation Fuel Prices: Prices include tax
Catering Weather Repair Courtesy Rental Type 100LL JetA JetA+ MOGAS 8087
 
City of Powell

This FBO has not yet been rated
FS:Independent
Last Updated: Jan-29
Login to update fuel prices
SS:
Contact City of PowellMore FBO Information
 
Add another FBO Facility Photos Catering Weather Repair Courtesy Rental Type 100LL JetA JetA+ MOGAS 8087
Services Transportation Aviation Fuel Prices: Prices include tax


model-print
model-print
model-print
model-print